createdAt,value
2022-08-18T00:03:59.383Z,97729.84
2022-08-18T00:09:08.160Z,97718.47
2022-08-18T00:14:22.297Z,97704.00
2022-08-18T00:19:46.827Z,97722.88
2022-08-18T00:24:50.522Z,97723.16
2022-08-18T00:29:54.523Z,97728.69
2022-08-18T00:34:57.237Z,97733.03
2022-08-18T00:39:59.308Z,97737.66
2022-08-18T00:45:05.011Z,97729.03
2022-08-18T00:50:08.055Z,97733.03
2022-08-18T00:55:18.379Z,97730.25
2022-08-18T01:00:22.309Z,97741.06
2022-08-18T01:05:38.227Z,97736.13
2022-08-18T01:10:41.439Z,97733.66
2022-08-18T01:15:43.402Z,97733.06
2022-08-18T01:21:27.329Z,97730.91
2022-08-18T01:26:31.372Z,97722.28
2022-08-18T01:31:53.321Z,97734.00
2022-08-18T01:36:57.512Z,97738.94
2022-08-18T01:41:59.421Z,97745.03
2022-08-18T01:47:01.387Z,97741.34
2022-08-18T01:52:06.793Z,97739.53
2022-08-18T01:57:14.753Z,97735.22
2022-08-18T02:02:24.522Z,97728.13
2022-08-18T02:07:30.802Z,97729.97
2022-08-18T02:12:39.469Z,97726.75
2022-08-18T02:17:43.917Z,97733.38
2022-08-18T02:22:47.426Z,97731.97
2022-08-18T02:27:49.431Z,97729.53
2022-08-18T02:32:51.385Z,97730.28
2022-08-18T02:37:54.658Z,97731.50
2022-08-18T02:42:57.054Z,97720.13
2022-08-18T02:47:59.040Z,97714.59
2022-08-18T02:53:02.555Z,97699.78
2022-08-18T02:58:04.456Z,97697.34
2022-08-18T03:03:06.680Z,97697.59
2022-08-18T03:08:10.620Z,97694.53
2022-08-18T03:13:13.808Z,97695.19
2022-08-18T03:18:16.590Z,97698.09
2022-08-18T03:23:18.791Z,97698.25
2022-08-18T03:28:31.624Z,97698.22
2022-08-18T03:33:34.325Z,97688.81
2022-08-18T03:38:36.386Z,97684.34
2022-08-18T03:43:50.600Z,97692.66
2022-08-18T03:48:54.341Z,97697.22
2022-08-18T03:54:00.777Z,97694.44
2022-08-18T03:59:18.053Z,97691.00
2022-08-18T04:04:24.650Z,97694.66
2022-08-18T04:09:29.500Z,97702.31
2022-08-18T04:14:32.599Z,97707.28
2022-08-18T04:19:35.036Z,97707.28
2022-08-18T04:24:37.232Z,97710.03
2022-08-18T04:29:42.172Z,97715.63
2022-08-18T04:34:44.582Z,97726.94
2022-08-18T04:39:46.684Z,97721.38
2022-08-18T04:44:48.644Z,97727.38
2022-08-18T04:49:50.912Z,97723.88
2022-08-18T04:54:52.818Z,97726.41
2022-08-18T04:59:55.187Z,97733.44
2022-08-18T05:04:57.088Z,97731.16
2022-08-18T05:10:00.153Z,97723.47
2022-08-18T05:15:02.424Z,97730.88
2022-08-18T05:20:04.848Z,97728.47
2022-08-18T05:25:10.678Z,97728.47
2022-08-18T05:30:14.651Z,97738.47
2022-08-18T05:35:33.469Z,97724.75
2022-08-18T05:40:36.423Z,97733.22
2022-08-18T05:45:40.966Z,97739.53
2022-08-18T05:50:43.358Z,97727.63
2022-08-18T05:56:30.682Z,97726.03
2022-08-18T06:01:42.310Z,97727.78
2022-08-18T06:06:47.761Z,97725.44
2022-08-18T06:11:51.289Z,97734.84
2022-08-18T06:17:24.053Z,97725.66
2022-08-18T06:22:34.034Z,97722.13
2022-08-18T06:27:43.840Z,97727.56
2022-08-18T06:33:18.529Z,97724.09
2022-08-18T06:38:38.944Z,97728.03
2022-08-18T06:43:59.064Z,97712.53
2022-08-18T06:49:06.926Z,97718.31
2022-08-18T06:54:28.251Z,97723.69
2022-08-18T06:59:33.302Z,97733.44
2022-08-18T07:04:40.284Z,97739.16
2022-08-18T07:09:42.204Z,97735.09
2022-08-18T07:14:51.983Z,97734.16
2022-08-18T07:20:05.434Z,97739.75
2022-08-18T07:25:18.350Z,97746.84
2022-08-18T07:30:20.294Z,97762.06
2022-08-18T07:35:35.631Z,97747.13
2022-08-18T07:40:51.490Z,97743.31
2022-08-18T07:45:57.424Z,97749.69
2022-08-18T07:51:43.527Z,97761.94
2022-08-18T07:57:00.592Z,97765.03
2022-08-18T08:02:14.807Z,97762.28
2022-08-18T08:07:42.008Z,97765.91
2022-08-18T08:13:01.887Z,97772.03
2022-08-18T08:18:33.837Z,97768.78
2022-08-18T08:23:47.153Z,97769.94
2022-08-18T08:29:18.677Z,97770.09
2022-08-18T08:34:40.803Z,97776.19
2022-08-18T08:39:42.713Z,97778.25
2022-08-18T08:45:02.581Z,97761.38
2022-08-18T08:50:09.310Z,97754.00
2022-08-18T08:55:25.632Z,97747.91
2022-08-18T09:00:28.622Z,97757.88
2022-08-18T09:05:40.207Z,97749.22
2022-08-18T09:11:16.449Z,97733.69
2022-08-18T09:16:34.259Z,97728.00
2022-08-18T09:21:44.578Z,97726.25
2022-08-18T09:26:51.890Z,97722.16
2022-08-18T09:32:18.562Z,97720.63
2022-08-18T09:37:26.464Z,97718.59
2022-08-18T09:43:01.188Z,97727.03
2022-08-18T09:48:03.935Z,97711.72
2022-08-18T09:53:33.441Z,97716.81
2022-08-18T10:04:14.512Z,97699.00
2022-08-18T10:09:44.078Z,97696.19
2022-08-18T10:15:14.799Z,97691.63
2022-08-18T10:21:08.283Z,97710.97
2022-08-18T10:26:34.800Z,97716.56
2022-08-18T10:31:55.385Z,97717.34
2022-08-18T10:37:16.982Z,97710.72
2022-08-18T10:42:33.899Z,97705.13
2022-08-18T10:47:36.732Z,97703.34
2022-08-18T10:53:23.901Z,97706.94
2022-08-18T10:58:37.227Z,97702.84
2022-08-18T11:03:52.312Z,97691.84
2022-08-18T11:09:01.642Z,97708.94
2022-08-18T11:14:39.706Z,97722.69
2022-08-18T11:19:45.631Z,97718.13
2022-08-18T11:24:48.240Z,97720.91
2022-08-18T11:29:53.077Z,97728.00
2022-08-18T11:34:58.037Z,97734.09
2022-08-18T11:40:03.371Z,97730.97
2022-08-18T11:45:23.442Z,97745.34
2022-08-18T11:50:32.051Z,97744.56
2022-08-18T11:55:34.737Z,97764.53
2022-08-18T12:00:44.311Z,97753.28
2022-08-18T12:05:56.332Z,97753.19
2022-08-18T12:11:26.584Z,97748.53
2022-08-18T12:16:38.467Z,97743.66
2022-08-18T12:21:42.020Z,97760.16
2022-08-18T12:26:47.671Z,97770.09
2022-08-18T12:31:52.191Z,97766.00
2022-08-18T12:36:58.220Z,97748.19
2022-08-18T12:42:00.659Z,97720.06
2022-08-18T12:47:10.559Z,97726.41
2022-08-18T12:57:52.138Z,97738.69
2022-08-18T13:02:55.871Z,97732.47
2022-08-18T13:08:04.403Z,97716.50
2022-08-18T13:13:07.864Z,97717.28
2022-08-18T13:18:14.179Z,97695.44
2022-08-18T13:23:20.072Z,97683.91
2022-08-18T13:28:27.060Z,97654.81
2022-08-18T13:33:35.241Z,97660.22
2022-08-18T13:38:55.046Z,97682.81
2022-08-18T13:43:57.000Z,97679.88
2022-08-18T13:49:02.930Z,97676.34
2022-08-18T13:54:18.695Z,97659.78
2022-08-18T13:59:31.739Z,97665.59
2022-08-18T14:04:34.073Z,97683.97
2022-08-18T14:09:38.333Z,97687.00
2022-08-18T14:14:40.865Z,97684.00
2022-08-18T14:20:01.823Z,97669.44
2022-08-18T14:25:23.209Z,97655.94
2022-08-18T14:30:25.919Z,97650.31
2022-08-18T14:35:34.566Z,97663.06
2022-08-18T14:40:50.692Z,97654.13
2022-08-18T14:45:53.878Z,97663.84
2022-08-18T14:51:02.978Z,97672.25
2022-08-18T14:56:06.022Z,97667.16
2022-08-18T15:01:11.397Z,97660.03
2022-08-18T15:06:17.171Z,97669.97
2022-08-18T15:11:25.427Z,97658.53
2022-08-18T15:16:32.161Z,97655.47
2022-08-18T15:21:53.153Z,97662.09
2022-08-18T15:27:03.169Z,97654.44
2022-08-18T15:32:10.519Z,97658.53
2022-08-18T15:37:12.573Z,97642.75
2022-08-18T15:42:14.684Z,97625.41
2022-08-18T15:47:20.954Z,97620.34
2022-08-18T15:52:25.884Z,97599.69
2022-08-18T15:57:38.540Z,97608.03
2022-08-18T16:02:44.785Z,97604.72
2022-08-18T16:07:51.858Z,97599.66
2022-08-18T16:12:53.957Z,97595.06
2022-08-18T16:17:56.090Z,97596.56
2022-08-18T16:22:58.864Z,97587.69
2022-08-18T16:28:01.494Z,97587.16
2022-08-18T16:33:06.918Z,97579.78
2022-08-18T16:38:09.732Z,97571.84
2022-08-18T16:43:13.031Z,97573.91
2022-08-18T16:48:16.872Z,97566.78
2022-08-18T16:53:18.978Z,97584.50
2022-08-18T16:58:39.855Z,97576.66
2022-08-18T17:04:00.646Z,97570.59
2022-08-18T17:09:09.853Z,97549.47
2022-08-18T17:14:12.796Z,97545.13
2022-08-18T17:19:14.735Z,97542.56
2022-08-18T17:24:19.860Z,97535.69
2022-08-18T17:30:05.535Z,97543.31
2022-08-18T17:35:17.830Z,97540.69
2022-08-18T17:40:35.410Z,97539.09
2022-08-18T17:45:37.512Z,97550.72
2022-08-18T17:51:05.898Z,97541.00
2022-08-18T17:56:35.441Z,97550.16
2022-08-18T18:01:37.971Z,97558.66
2022-08-18T18:06:42.111Z,97544.13
2022-08-18T18:11:48.180Z,97551.53
2022-08-18T18:17:28.319Z,97540.38
2022-08-18T18:22:30.605Z,97547.97
2022-08-18T18:27:40.058Z,97548.34
2022-08-18T18:32:49.017Z,97535.13
2022-08-18T18:38:24.397Z,97538.09
2022-08-18T18:43:39.528Z,97535.19
2022-08-18T18:48:52.744Z,97533.97
2022-08-18T18:54:07.675Z,97529.38
2022-08-18T18:59:18.215Z,97530.81
2022-08-18T19:04:29.183Z,97526.53
2022-08-18T19:09:48.499Z,97529.38
2022-08-18T19:15:00.847Z,97529.38
2022-08-18T19:20:08.537Z,97545.53
2022-08-18T19:25:19.980Z,97551.53
2022-08-18T19:30:22.382Z,97540.81
2022-08-18T19:35:35.224Z,97529.31
2022-08-18T19:40:46.958Z,97525.22
2022-08-18T19:45:55.578Z,97501.16
2022-08-18T19:51:06.800Z,97497.50
2022-08-18T19:56:21.421Z,97500.41
2022-08-18T20:01:54.768Z,97493.84
2022-08-18T20:07:14.734Z,97489.66
2022-08-18T20:12:37.577Z,97481.41
2022-08-18T20:17:57.392Z,97483.50
2022-08-18T20:23:00.812Z,97490.44
2022-08-18T20:28:04.431Z,97491.75
2022-08-18T20:33:20.703Z,97486.38
2022-08-18T20:38:37.024Z,97481.97
2022-08-18T20:43:41.017Z,97492.22
2022-08-18T20:48:42.880Z,97487.91
2022-08-18T20:53:59.317Z,97482.81
2022-08-18T20:59:08.639Z,97483.72
2022-08-18T21:04:11.123Z,97499.63
2022-08-18T21:09:18.550Z,97491.91
2022-08-18T21:14:29.835Z,97476.53
2022-08-18T21:19:41.031Z,97490.53
2022-08-18T21:24:50.024Z,97499.06
2022-08-18T21:29:53.754Z,97514.19
2022-08-18T21:34:56.012Z,97525.09
2022-08-18T21:40:01.713Z,97515.13
2022-08-18T21:45:04.137Z,97498.38
2022-08-18T21:50:19.520Z,97500.22
2022-08-18T21:55:40.327Z,97493.94
2022-08-18T22:01:00.806Z,97495.31
2022-08-18T22:06:03.549Z,97513.03
2022-08-18T22:11:44.164Z,97511.00
2022-08-18T22:17:28.582Z,97534.44
2022-08-18T22:22:49.357Z,97532.91
2022-08-18T22:27:53.682Z,97527.03
2022-08-18T22:32:55.645Z,97524.22
2022-08-18T22:37:57.968Z,97528.13
2022-08-18T22:42:59.922Z,97531.69
2022-08-18T22:48:03.038Z,97524.28
2022-08-18T22:53:05.657Z,97512.59
2022-08-18T22:58:07.765Z,97504.88
2022-08-18T23:03:12.222Z,97499.03
2022-08-18T23:08:14.490Z,97500.13
2022-08-18T23:13:17.497Z,97493.06
2022-08-18T23:18:21.549Z,97478.75
2022-08-18T23:23:24.360Z,97477.81
2022-08-18T23:28:27.345Z,97463.84
2022-08-18T23:33:29.267Z,97476.63
2022-08-18T23:38:31.489Z,97466.47
2022-08-18T23:43:37.362Z,97474.94
2022-08-18T23:48:39.375Z,97488.91
2022-08-18T23:53:41.318Z,97475.50
2022-08-18T23:58:43.491Z,97477.53
